Time;durP1;ratioP1;P1;durP2;ratioP2;P2;SDS_P1;SDS_P2;PMS_P1;PMS_P2;Temp;Humidity;BMP_temperature;BMP_pressure;BME280_temperature;BME280_humidity;BME280_pressure;Samples;Min_cycle;Max_cycle;Signal;HPM_P1;HPM_P2
2023/12/10 00:01:31;;;;;;;2.42;2.25;;;-0.80;99.90;;;;;;4900114;29;20198;-81
2023/12/10 00:03:58;;;;;;;5.97;5.47;;;-0.90;99.90;;;;;;4911925;29;20405;-81
2023/12/10 00:06:26;;;;;;;2.95;2.78;;;-0.80;99.90;;;;;;4899704;29;20799;-84
2023/12/10 00:08:53;;;;;;;2.88;2.78;;;-0.70;99.90;;;;;;4917084;29;20240;-82
2023/12/10 00:11:24;;;;;;;2.95;2.75;;;-0.80;99.90;;;;;;4903003;29;20234;-82
2023/12/10 00:13:52;;;;;;;5.07;4.63;;;-0.70;99.90;;;;;;4909666;29;20261;-81
2023/12/10 00:16:19;;;;;;;3.70;3.40;;;-0.80;99.90;;;;;;4907802;29;20209;-80
2023/12/10 00:18:50;;;;;;;8.55;4.78;;;-0.70;99.90;;;;;;4912714;29;20230;-81
2023/12/10 00:21:19;;;;;;;3.50;3.33;;;-0.80;99.90;;;;;;4917582;29;20209;-84
2023/12/10 00:23:49;;;;;;;2.88;2.78;;;-0.70;99.90;;;;;;4913090;29;20281;-81
2023/12/10 00:26:20;;;;;;;5.32;5.03;;;-0.70;99.90;;;;;;4915942;29;20403;-82
2023/12/10 00:28:53;;;;;;;2.22;2.10;;;-0.70;99.90;;;;;;4910788;29;20507;-80
2023/12/10 00:31:21;;;;;;;3.53;2.75;;;-0.70;99.90;;;;;;4897832;29;20770;-81
2023/12/10 00:33:50;;;;;;;6.03;4.57;;;-0.60;99.90;;;;;;4920974;29;20229;-84
2023/12/10 00:36:19;;;;;;;2.67;2.58;;;-0.60;99.90;;;;;;4921303;29;20249;-79
2023/12/10 00:38:49;;;;;;;3.97;3.78;;;-0.70;99.90;;;;;;4924171;29;20197;-85
2023/12/10 00:41:21;;;;;;;2.90;2.80;;;-0.60;99.90;;;;;;4926227;29;20355;-86
2023/12/10 00:43:59;;;;;;;2.03;1.92;;;-0.60;99.90;;;;;;4924108;29;20222;-80
2023/12/10 00:46:36;;;;;;;2.10;2.00;;;-0.60;99.90;;;;;;4923562;29;20209;-84
2023/12/10 00:49:09;;;;;;;2.70;2.50;;;-0.60;99.90;;;;;;4921771;29;20200;-81
2023/12/10 00:51:38;;;;;;;2.20;2.10;;;-0.50;99.90;;;;;;4914265;29;20225;-81
2023/12/10 00:54:06;;;;;;;2.00;1.90;;;-0.50;99.90;;;;;;4918329;29;20209;-82
2023/12/10 00:56:34;;;;;;;3.15;2.88;;;-0.60;99.90;;;;;;4900175;29;20379;-81
2023/12/10 00:59:05;;;;;;;3.92;3.72;;;-0.50;99.90;;;;;;4919200;29;20228;-89
2023/12/10 01:01:33;;;;;;;2.85;1.50;;;-0.50;99.90;;;;;;4901595;29;20192;-83
2023/12/10 01:04:03;;;;;;;3.97;2.30;;;-0.50;99.90;;;;;;4915781;29;20190;-81
2023/12/10 01:06:33;;;;;;;3.67;3.47;;;-0.50;99.90;;;;;;4912407;29;20205;-80
2023/12/10 01:09:00;;;;;;;6.07;5.60;;;-0.50;99.90;;;;;;4922962;29;20209;-79
2023/12/10 01:11:27;;;;;;;1.73;1.63;;;-0.40;99.90;;;;;;4907985;29;20579;-84
2023/12/10 01:13:55;;;;;;;2.10;2.03;;;-0.60;99.90;;;;;;4916297;29;20210;-82
2023/12/10 01:16:23;;;;;;;1.52;1.52;;;-0.50;99.90;;;;;;4906835;29;20214;-81
2023/12/10 01:18:51;;;;;;;0.90;0.90;;;-0.60;99.90;;;;;;4909280;29;20245;-83
2023/12/10 01:21:21;;;;;;;4.20;3.90;;;-0.70;99.90;;;;;;4907521;29;20471;-82
2023/12/10 01:23:50;;;;;;;1.98;1.88;;;-0.70;99.90;;;;;;4920337;29;20212;-81
2023/12/10 01:26:18;;;;;;;2.40;2.28;;;-0.70;99.90;;;;;;4908665;29;20514;-82
2023/12/10 01:28:45;;;;;;;2.38;2.17;;;-0.70;99.90;;;;;;4917316;29;20241;-81
2023/12/10 01:31:14;;;;;;;3.42;3.13;;;-0.70;99.90;;;;;;4913252;29;20271;-82
2023/12/10 01:33:41;;;;;;;3.38;3.08;;;-0.70;99.90;;;;;;4905782;29;20441;-85
2023/12/10 01:36:23;;;;;;;3.00;2.88;;;-0.60;99.90;;;;;;4905998;29;20209;-84
2023/12/10 01:38:52;;;;;;;2.13;2.03;;;-0.60;99.90;;;;;;4917353;29;20196;-83
2023/12/10 01:41:20;;;;;;;3.85;3.65;;;-0.70;99.90;;;;;;4917125;29;20233;-82
2023/12/10 01:43:49;;;;;;;0.90;0.90;;;-0.60;99.90;;;;;;4906083;29;20316;-79
2023/12/10 01:46:16;;;;;;;3.58;3.38;;;-0.70;99.90;;;;;;4915624;29;20214;-81
2023/12/10 01:48:45;;;;;;;3.92;2.53;;;-0.60;99.90;;;;;;4917887;29;20212;-84
2023/12/10 01:51:13;;;;;;;4.30;4.00;;;-0.70;99.90;;;;;;4901176;29;20226;-84
2023/12/10 01:53:41;;;;;;;2.13;2.03;;;-0.70;99.90;;;;;;4911213;29;20209;-82
2023/12/10 01:56:10;;;;;;;2.88;2.08;;;-0.60;99.90;;;;;;4910421;29;20244;-80
2023/12/10 01:58:44;;;;;;;3.58;3.42;;;-0.50;99.90;;;;;;4913124;29;20550;-84
2023/12/10 02:01:13;;;;;;;2.60;2.47;;;-0.60;99.90;;;;;;4901076;29;20216;-82
2023/12/10 02:03:44;;;;;;;4.25;3.58;;;-0.60;99.90;;;;;;4912621;29;20216;-85
2023/12/10 02:06:18;;;;;;;1.85;1.75;;;-0.70;99.90;;;;;;4898777;29;20198;-83
2023/12/10 02:08:46;;;;;;;4.03;3.78;;;-0.40;99.90;;;;;;4905138;29;20262;-82
2023/12/10 02:11:17;;;;;;;2.10;2.00;;;-0.50;99.90;;;;;;4914131;29;20565;-81
2023/12/10 02:13:48;;;;;;;2.03;1.92;;;-0.60;99.90;;;;;;4898557;29;20204;-86
2023/12/10 02:16:15;;;;;;;2.05;1.85;;;-0.30;99.90;;;;;;4910771;29;20194;-86
2023/12/10 02:18:44;;;;;;;1.63;1.60;;;-0.30;99.90;;;;;;4909323;29;20230;-83
2023/12/10 02:21:13;;;;;;;1.60;1.50;;;-0.30;99.90;;;;;;4894992;29;20198;-85
2023/12/10 02:23:55;;;;;;;1.98;1.88;;;-0.10;99.90;;;;;;4900039;29;20214;-80
2023/12/10 02:26:23;;;;;;;3.15;2.95;;;0.10;99.90;;;;;;4907778;29;20216;-84
2023/12/10 02:28:54;;;;;;;2.28;2.17;;;-0.10;99.90;;;;;;4901665;29;20653;-81
2023/12/10 02:31:22;;;;;;;0.40;0.40;;;-0.10;99.90;;;;;;4916730;29;20265;-83
2023/12/10 02:33:50;;;;;;;1.90;1.77;;;-0.10;99.90;;;;;;4910794;29;20208;-83
2023/12/10 02:36:17;;;;;;;2.80;2.70;;;-0.10;99.90;;;;;;4911580;29;20214;-80
2023/12/10 02:38:47;;;;;;;1.15;1.15;;;-0.10;99.90;;;;;;4910928;29;20243;-86
2023/12/10 02:41:15;;;;;;;4.30;4.00;;;0.00;99.90;;;;;;4891928;29;20221;-81
2023/12/10 02:43:42;;;;;;;2.58;2.45;;;0.10;99.90;;;;;;4902421;29;20206;-80
2023/12/10 02:46:10;;;;;;;0.80;0.80;;;0.30;99.90;;;;;;4916780;29;20233;-83
2023/12/10 02:48:38;;;;;;;2.42;2.33;;;0.40;99.90;;;;;;4899834;29;20206;-84
2023/12/10 02:51:06;;;;;;;2.78;2.50;;;0.40;99.90;;;;;;4880952;29;20306;-80
2023/12/10 02:53:36;;;;;;;2.63;2.47;;;0.40;99.90;;;;;;4898949;29;20210;-79
2023/12/10 02:56:04;;;;;;;1.55;1.55;;;0.40;99.90;;;;;;4906390;29;20398;-81
2023/12/10 02:58:31;;;;;;;2.38;2.25;;;0.50;99.90;;;;;;4901944;29;20256;-78
2023/12/10 03:01:01;;;;;;;1.13;1.13;;;0.60;99.90;;;;;;4907364;29;20197;-81
2023/12/10 03:03:28;;;;;;;3.08;2.60;;;0.70;99.90;;;;;;4900802;29;20280;-81
2023/12/10 03:05:56;;;;;;;2.75;2.63;;;0.80;99.90;;;;;;4912315;29;20260;-82
2023/12/10 03:08:24;;;;;;;3.13;2.95;;;0.90;99.90;;;;;;4916295;29;20244;-80
2023/12/10 03:10:51;;;;;;;2.65;2.50;;;1.00;99.90;;;;;;4906565;29;20241;-83
2023/12/10 03:13:19;;;;;;;1.65;1.65;;;1.00;99.90;;;;;;4894085;29;20249;-81
2023/12/10 03:15:45;;;;;;;1.70;1.65;;;1.00;99.90;;;;;;4902081;29;20506;-81
2023/12/10 03:18:19;;;;;;;9.10;4.20;;;0.90;99.90;;;;;;4903125;29;20205;-81
2023/12/10 03:20:46;;;;;;;2.33;2.08;;;0.90;99.90;;;;;;4902532;29;20225;-80
2023/12/10 03:23:13;;;;;;;1.55;1.50;;;0.90;99.90;;;;;;4915566;29;20270;-83
2023/12/10 03:25:51;;;;;;;0.70;0.70;;;0.90;99.90;;;;;;4913516;29;20209;-81
2023/12/10 03:28:18;;;;;;;1.77;1.67;;;0.90;99.90;;;;;;4914988;29;20193;-84
2023/12/10 03:30:47;;;;;;;0.60;0.60;;;0.80;99.90;;;;;;4911128;29;20237;-81
2023/12/10 03:33:14;;;;;;;2.75;1.80;;;0.80;99.90;;;;;;4898395;29;20257;-82
2023/12/10 03:35:42;;;;;;;3.13;1.58;;;0.80;99.90;;;;;;4896646;29;20585;-81
2023/12/10 03:38:12;;;;;;;2.60;2.50;;;0.80;99.90;;;;;;4911948;29;20213;-78
2023/12/10 03:40:39;;;;;;;1.73;1.63;;;0.70;99.90;;;;;;4901562;29;20216;-81
2023/12/10 03:43:06;;;;;;;0.60;0.60;;;0.70;99.90;;;;;;4911560;29;20279;-78
2023/12/10 03:45:33;;;;;;;2.58;2.45;;;0.70;99.90;;;;;;4911557;29;20224;-84
2023/12/10 03:48:02;;;;;;;4.47;3.35;;;0.70;99.90;;;;;;4910833;29;20214;-80
2023/12/10 03:50:32;;;;;;;2.58;2.38;;;0.60;99.90;;;;;;4906104;29;20194;-82
2023/12/10 03:53:00;;;;;;;1.33;1.15;;;0.60;99.90;;;;;;4916004;29;20209;-84
2023/12/10 03:55:30;;;;;;;2.45;2.30;;;0.80;99.90;;;;;;4906752;29;20217;-79
2023/12/10 03:57:57;;;;;;;2.25;1.63;;;0.60;99.90;;;;;;4911093;29;20653;-79
2023/12/10 04:00:27;;;;;;;0.65;0.65;;;0.60;99.90;;;;;;4900696;29;20510;-80
2023/12/10 04:02:54;;;;;;;1.30;1.30;;;0.50;99.90;;;;;;4903750;29;20254;-82
2023/12/10 04:05:22;;;;;;;1.80;1.70;;;0.50;99.90;;;;;;4895976;29;20250;-78
2023/12/10 04:07:49;;;;;;;0.88;0.88;;;0.50;99.90;;;;;;4898482;29;20242;-79
2023/12/10 04:10:18;;;;;;;2.80;2.20;;;0.50;99.90;;;;;;4908269;29;20281;-86
2023/12/10 04:12:46;;;;;;;1.00;1.00;;;0.50;99.90;;;;;;4904881;29;20226;-80
2023/12/10 04:15:17;;;;;;;1.15;1.10;;;0.50;99.90;;;;;;4895215;29;20507;-82
2023/12/10 04:17:44;;;;;;;2.75;2.55;;;0.50;99.90;;;;;;4902068;29;20657;-81
2023/12/10 04:20:11;;;;;;;2.17;2.03;;;0.50;99.90;;;;;;4916941;29;20269;-80
2023/12/10 04:22:41;;;;;;;1.73;1.63;;;0.50;99.90;;;;;;4894779;29;20214;-84
2023/12/10 04:25:12;;;;;;;3.15;2.95;;;0.70;99.90;;;;;;4901245;29;20276;-82
2023/12/10 04:27:40;;;;;;;1.92;1.67;;;0.60;99.90;;;;;;4920266;29;20397;-84
2023/12/10 04:30:08;;;;;;;2.13;2.03;;;0.50;99.90;;;;;;4912568;29;20722;-80
2023/12/10 04:32:37;;;;;;;1.88;1.77;;;0.50;99.90;;;;;;4922450;29;20589;-87
2023/12/10 04:35:05;;;;;;;3.10;2.95;;;0.50;99.90;;;;;;4913173;29;20229;-86
2023/12/10 04:37:36;;;;;;;1.63;1.63;;;0.50;99.90;;;;;;4907649;29;20269;-82
2023/12/10 04:40:05;;;;;;;2.20;2.05;;;0.60;99.90;;;;;;4905557;29;20225;-79
2023/12/10 04:42:34;;;;;;;4.28;3.95;;;0.60;99.90;;;;;;4907181;29;20225;-84
2023/12/10 04:45:01;;;;;;;3.13;2.95;;;0.80;99.90;;;;;;4914012;29;20521;-84
2023/12/10 04:47:36;;;;;;;2.78;2.58;;;0.60;99.90;;;;;;4917733;29;20209;-81
2023/12/10 04:50:04;;;;;;;1.85;1.75;;;0.60;99.90;;;;;;4907705;29;20234;-81
2023/12/10 04:52:32;;;;;;;2.95;1.90;;;0.60;99.90;;;;;;4906967;29;20253;-81
2023/12/10 04:55:00;;;;;;;1.13;1.13;;;0.60;99.90;;;;;;4917761;29;20272;-82
2023/12/10 04:57:27;;;;;;;2.13;2.03;;;0.60;99.90;;;;;;4906819;29;20225;-79
2023/12/10 04:59:54;;;;;;;1.50;1.40;;;0.60;99.90;;;;;;4907247;29;20203;-82
2023/12/10 05:02:23;;;;;;;1.45;1.45;;;0.60;99.90;;;;;;4908889;29;20240;-80
2023/12/10 05:04:51;;;;;;;2.83;2.63;;;0.60;99.90;;;;;;4918542;29;20204;-80
2023/12/10 05:07:18;;;;;;;3.03;2.78;;;0.80;99.90;;;;;;4915875;29;20212;-80
2023/12/10 05:09:46;;;;;;;1.20;1.20;;;0.80;99.90;;;;;;4898805;29;20221;-81
2023/12/10 05:12:13;;;;;;;1.15;1.15;;;0.60;99.90;;;;;;4893533;29;20278;-83
2023/12/10 05:14:41;;;;;;;1.85;1.83;;;0.70;99.90;;;;;;4907782;29;20217;-82
2023/12/10 05:17:09;;;;;;;2.13;2.03;;;0.70;99.90;;;;;;4909095;29;20272;-80
2023/12/10 05:19:38;;;;;;;3.38;3.13;;;0.70;99.90;;;;;;4893491;29;20549;-88
2023/12/10 05:22:08;;;;;;;3.17;2.88;;;0.70;99.90;;;;;;4923028;29;20255;-85
2023/12/10 05:24:35;;;;;;;0.77;0.77;;;0.80;99.90;;;;;;4916757;29;20257;-83
2023/12/10 05:27:04;;;;;;;1.73;1.63;;;0.70;99.90;;;;;;4898073;29;20671;-82
2023/12/10 05:29:31;;;;;;;2.30;2.20;;;0.70;99.90;;;;;;4900912;29;20247;-79
2023/12/10 05:31:58;;;;;;;1.08;1.08;;;0.70;99.90;;;;;;4918621;29;20241;-81
2023/12/10 05:34:26;;;;;;;1.00;1.00;;;0.70;99.90;;;;;;4898872;29;20285;-81
2023/12/10 05:36:54;;;;;;;2.90;2.80;;;0.70;99.90;;;;;;4899898;29;20216;-83
2023/12/10 05:39:25;;;;;;;4.85;4.00;;;0.70;99.90;;;;;;4893483;29;20262;-78
2023/12/10 05:41:52;;;;;;;1.35;1.30;;;0.70;99.90;;;;;;4906518;29;20494;-80
2023/12/10 05:44:19;;;;;;;2.92;2.72;;;0.70;99.90;;;;;;4909620;29;20205;-80
2023/12/10 05:46:47;;;;;;;0.82;0.77;;;0.80;99.90;;;;;;4920667;29;20228;-84
2023/12/10 05:49:13;;;;;;;0.82;0.82;;;0.80;99.90;;;;;;4923418;29;20205;-79
2023/12/10 05:51:41;;;;;;;1.80;1.70;;;0.80;99.90;;;;;;4926704;29;20258;-81
2023/12/10 05:54:09;;;;;;;2.42;2.33;;;0.80;99.90;;;;;;4910319;29;20226;-81
2023/12/10 05:56:37;;;;;;;1.05;1.05;;;0.90;99.90;;;;;;4911433;29;20210;-78
2023/12/10 05:59:05;;;;;;;1.38;1.35;;;1.10;99.90;;;;;;4910497;29;20212;-81
2023/12/10 06:01:32;;;;;;;2.95;2.78;;;0.80;99.90;;;;;;4913330;29;20542;-80
2023/12/10 06:03:59;;;;;;;4.15;3.75;;;0.90;99.90;;;;;;4906677;29;20213;-79
2023/12/10 06:06:28;;;;;;;1.92;1.83;;;0.90;99.90;;;;;;4918033;29;20221;-83
2023/12/10 06:08:59;;;;;;;2.53;2.40;;;0.90;99.90;;;;;;4905249;29;20225;-79
2023/12/10 06:11:25;;;;;;;0.40;0.40;;;0.80;99.90;;;;;;4899292;29;20387;-79
2023/12/10 06:13:52;;;;;;;0.60;0.60;;;0.80;99.90;;;;;;4911912;29;20522;-78
2023/12/10 06:16:20;;;;;;;9.00;4.35;;;0.80;99.90;;;;;;4902546;29;20409;-78
2023/12/10 06:18:47;;;;;;;2.38;2.28;;;0.90;99.90;;;;;;4900381;29;20216;-78
2023/12/10 06:21:14;;;;;;;2.00;1.88;;;0.90;99.90;;;;;;4907041;29;20207;-80
2023/12/10 06:23:42;;;;;;;0.93;0.93;;;0.90;99.90;;;;;;4901174;29;20208;-80
2023/12/10 06:26:10;;;;;;;1.02;1.02;;;1.00;99.90;;;;;;4911730;29;20210;-81
2023/12/10 06:28:37;;;;;;;3.25;2.97;;;1.00;99.90;;;;;;4901022;29;20360;-80
2023/12/10 06:31:07;;;;;;;6.38;2.45;;;1.00;99.90;;;;;;4905900;29;20205;-81
2023/12/10 06:33:34;;;;;;;1.98;1.88;;;0.90;99.90;;;;;;4904660;29;20383;-81
2023/12/10 06:36:04;;;;;;;0.95;0.95;;;1.10;99.90;;;;;;4898451;29;20224;-80
2023/12/10 06:38:31;;;;;;;1.98;1.88;;;0.90;99.90;;;;;;4902610;29;20210;-83
2023/12/10 06:40:58;;;;;;;0.93;0.90;;;0.90;99.90;;;;;;4889093;29;20241;-79
2023/12/10 06:43:28;;;;;;;2.67;2.47;;;1.00;99.90;;;;;;4897559;29;20285;-80
2023/12/10 06:45:58;;;;;;;0.70;0.70;;;0.90;99.90;;;;;;4902473;29;20221;-84
2023/12/10 06:48:26;;;;;;;4.45;1.23;;;1.10;99.90;;;;;;4903209;29;20245;-80
2023/12/10 06:50:54;;;;;;;1.75;1.65;;;0.90;99.90;;;;;;4903558;29;20285;-79
2023/12/10 06:53:22;;;;;;;2.28;2.17;;;0.80;99.90;;;;;;4896516;29;20249;-81
2023/12/10 06:55:50;;;;;;;1.02;1.02;;;0.90;99.90;;;;;;4913230;29;20529;-78
2023/12/10 06:58:20;;;;;;;6.28;3.78;;;0.80;99.90;;;;;;4904459;29;20240;-80
2023/12/10 07:00:51;;;;;;;1.77;1.15;;;0.80;99.90;;;;;;4907750;29;20209;-81
2023/12/10 07:03:18;;;;;;;1.25;1.25;;;1.10;99.90;;;;;;4912656;29;20252;-80
2023/12/10 07:05:45;;;;;;;1.35;1.25;;;0.90;99.90;;;;;;4914242;29;20268;-81
2023/12/10 07:08:12;;;;;;;1.63;1.52;;;0.90;99.90;;;;;;4918200;29;20217;-80
2023/12/10 07:10:40;;;;;;;1.08;1.08;;;0.90;99.90;;;;;;4899577;29;20280;-82
2023/12/10 07:13:10;;;;;;;1.67;1.58;;;0.90;99.90;;;;;;4905070;29;20829;-80
2023/12/10 07:15:45;;;;;;;0.43;0.43;;;0.90;99.90;;;;;;4903261;29;20203;-81
2023/12/10 07:18:14;;;;;;;1.52;1.42;;;0.90;99.90;;;;;;4904836;29;20193;-82
2023/12/10 07:20:42;;;;;;;4.80;2.70;;;0.90;99.90;;;;;;4904273;29;20246;-83
2023/12/10 07:23:09;;;;;;;1.20;1.20;;;0.90;99.90;;;;;;4907138;29;20221;-83
2023/12/10 07:25:37;;;;;;;1.00;1.00;;;0.80;99.90;;;;;;4911142;29;20210;-85
2023/12/10 07:28:06;;;;;;;2.05;1.95;;;1.00;99.90;;;;;;4906932;29;20245;-86
2023/12/10 07:30:38;;;;;;;1.50;1.40;;;1.00;99.90;;;;;;4905338;29;20289;-80
2023/12/10 07:33:06;;;;;;;1.95;0.93;;;1.00;99.90;;;;;;4906833;29;20483;-83
2023/12/10 07:35:33;;;;;;;0.77;0.77;;;1.30;99.90;;;;;;4897834;29;20275;-82
2023/12/10 07:38:15;;;;;;;0.75;0.75;;;1.00;99.90;;;;;;4916937;29;20205;-85
2023/12/10 07:40:43;;;;;;;1.17;1.15;;;1.00;99.90;;;;;;4915036;29;20200;-86
2023/12/10 07:43:11;;;;;;;1.35;1.35;;;1.10;99.90;;;;;;4910624;29;20213;-82
2023/12/10 07:45:40;;;;;;;0.70;0.70;;;1.10;99.90;;;;;;4912472;29;20287;-82
2023/12/10 07:48:08;;;;;;;0.47;0.47;;;1.10;99.90;;;;;;4898490;29;20282;-81
2023/12/10 07:50:38;;;;;;;1.10;1.10;;;1.10;99.90;;;;;;4897673;29;20217;-81
2023/12/10 07:53:05;;;;;;;0.50;0.50;;;1.10;99.90;;;;;;4902397;29;20289;-82
2023/12/10 07:55:36;;;;;;;0.40;0.40;;;1.10;99.90;;;;;;4919497;29;20186;-81
2023/12/10 07:58:05;;;;;;;0.93;0.93;;;1.20;99.90;;;;;;4926550;29;20205;-84
2023/12/10 08:00:34;;;;;;;1.77;1.67;;;1.20;99.90;;;;;;4908696;29;20261;-86
2023/12/10 08:03:01;;;;;;;1.13;1.13;;;1.20;99.90;;;;;;4922149;29;20203;-84
2023/12/10 08:05:29;;;;;;;0.70;0.70;;;1.20;99.90;;;;;;4902716;29;20214;-83
2023/12/10 08:08:02;;;;;;;1.15;1.15;;;1.10;99.90;;;;;;4900319;29;20217;-82
2023/12/10 08:10:32;;;;;;;1.52;1.23;;;1.20;99.90;;;;;;4902016;29;20803;-83
2023/12/10 08:12:59;;;;;;;1.25;1.15;;;1.20;99.90;;;;;;4901008;29;20220;-82
2023/12/10 08:15:29;;;;;;;2.50;2.40;;;1.20;99.90;;;;;;4905731;29;20280;-82
2023/12/10 08:18:00;;;;;;;0.77;0.77;;;1.20;99.90;;;;;;4907438;29;20206;-81
2023/12/10 08:20:28;;;;;;;1.10;1.10;;;1.50;99.90;;;;;;4913435;29;20223;-82
2023/12/10 08:23:00;;;;;;;0.75;0.75;;;1.20;99.90;;;;;;4906862;29;20254;-87
2023/12/10 08:25:29;;;;;;;2.00;1.90;;;1.30;99.90;;;;;;4905739;29;20216;-85
2023/12/10 08:27:58;;;;;;;1.17;1.17;;;1.30;99.90;;;;;;4917966;29;20225;-85
2023/12/10 08:30:29;;;;;;;1.05;1.05;;;1.30;99.90;;;;;;4900976;29;20233;-84
2023/12/10 08:33:01;;;;;;;2.38;2.28;;;2.10;99.90;;;;;;4897667;29;20229;-84
2023/12/10 08:35:31;;;;;;;3.28;2.72;;;1.40;99.90;;;;;;4891624;29;20213;-85
2023/12/10 08:38:07;;;;;;;1.77;1.67;;;1.40;99.90;;;;;;4908232;29;20205;-85
2023/12/10 08:40:41;;;;;;;1.25;1.20;;;1.60;99.90;;;;;;4909041;29;20401;-86
2023/12/10 08:43:17;;;;;;;1.30;1.30;;;1.40;99.90;;;;;;4901485;29;20209;-86
2023/12/10 08:45:48;;;;;;;0.75;0.75;;;1.30;99.90;;;;;;4882735;29;20209;-85
2023/12/10 08:48:18;;;;;;;0.40;0.40;;;1.30;99.90;;;;;;4895925;29;20202;-83
2023/12/10 08:50:53;;;;;;;3.08;2.88;;;1.30;99.90;;;;;;4911911;29;20190;-86
2023/12/10 08:53:22;;;;;;;1.13;1.08;;;1.80;99.90;;;;;;4897154;29;20813;-87
2023/12/10 08:55:51;;;;;;;2.45;2.25;;;2.50;99.90;;;;;;4890926;29;20205;-88
2023/12/10 08:58:18;;;;;;;5.85;5.53;;;0.40;99.90;;;;;;4905353;29;20217;-85
2023/12/10 09:00:50;;;;;;;2.95;2.15;;;1.30;99.90;;;;;;4899151;29;20204;-84
2023/12/10 09:03:20;;;;;;;1.48;1.42;;;1.30;99.90;;;;;;4909509;29;20214;-86
2023/12/10 09:05:51;;;;;;;1.50;1.40;;;2.10;99.90;;;;;;4923589;29;20289;-87
2023/12/10 09:08:19;;;;;;;13.77;9.20;;;1.50;99.90;;;;;;4909469;29;20205;-86
2023/12/10 09:10:56;;;;;;;7.30;6.65;;;1.60;99.90;;;;;;4893171;29;20378;-88
2023/12/10 09:13:25;;;;;;;10.68;7.07;;;2.00;99.90;;;;;;4908193;29;20225;-87
2023/12/10 09:15:55;;;;;;;2.70;2.60;;;1.50;99.90;;;;;;4905268;29;20431;-86
2023/12/10 09:18:23;;;;;;;4.43;2.78;;;2.70;99.90;;;;;;4914101;29;20562;-85
2023/12/10 09:20:58;;;;;;;7.82;6.93;;;1.60;99.90;;;;;;4920750;29;20248;-88
2023/12/10 09:23:33;;;;;;;13.85;11.32;;;2.40;99.90;;;;;;4907987;29;20213;-85
2023/12/10 09:26:04;;;;;;;5.22;4.88;;;1.60;99.90;;;;;;4917362;29;20224;-87
2023/12/10 09:28:32;;;;;;;5.00;4.70;;;1.50;99.90;;;;;;4919529;29;20214;-85
2023/12/10 09:31:04;;;;;;;4.38;4.03;;;2.30;99.90;;;;;;4918172;29;20220;-81
2023/12/10 09:33:31;;;;;;;3.05;2.90;;;1.60;99.90;;;;;;4914220;29;20333;-83
2023/12/10 09:36:00;;;;;;;9.02;4.85;;;1.90;99.90;;;;;;4905268;29;20226;-83
2023/12/10 09:38:29;;;;;;;6.43;5.80;;;2.30;99.90;;;;;;4907736;29;20510;-83
2023/12/10 09:40:58;;;;;;;3.10;2.90;;;1.60;99.90;;;;;;4906179;29;20210;-86
2023/12/10 09:43:25;;;;;;;6.05;4.70;;;1.60;99.90;;;;;;4915281;29;20254;-84
2023/12/10 09:45:52;;;;;;;7.40;5.07;;;1.60;99.90;;;;;;4917507;29;20807;-86
2023/12/10 09:48:23;;;;;;;6.78;6.20;;;1.40;99.90;;;;;;4905526;29;20225;-88
2023/12/10 09:50:53;;;;;;;7.60;7.10;;;1.70;99.90;;;;;;4909428;29;20255;-88
2023/12/10 09:53:24;;;;;;;4.97;3.90;;;1.70;99.90;;;;;;4918132;29;20847;-89
2023/12/10 09:55:51;;;;;;;12.90;5.45;;;2.10;99.90;;;;;;4901449;29;20338;-83
2023/12/10 09:58:19;;;;;;;2.92;1.98;;;2.50;99.90;;;;;;4911288;29;20229;-88
2023/12/10 10:00:52;;;;;;;5.50;5.07;;;2.50;99.90;;;;;;4914102;29;20194;-86
2023/12/10 10:03:21;;;;;;;1.48;1.48;;;2.30;99.90;;;;;;4910987;29;20266;-87
2023/12/10 10:05:56;;;;;;;1.13;1.13;;;1.80;99.90;;;;;;4909297;29;20193;-85
2023/12/10 10:08:25;;;;;;;3.10;2.90;;;1.80;99.90;;;;;;4901347;29;20209;-90
2023/12/10 10:10:53;;;;;;;0.80;0.80;;;2.30;99.90;;;;;;4909048;29;20383;-84
2023/12/10 10:13:20;;;;;;;3.97;3.60;;;1.90;99.90;;;;;;4913480;29;20261;-82
2023/12/10 10:15:47;;;;;;;4.90;4.50;;;2.20;99.90;;;;;;4904227;29;20277;-83
2023/12/10 10:18:14;;;;;;;2.03;1.92;;;1.90;99.90;;;;;;4917284;29;20205;-83
2023/12/10 10:20:44;;;;;;;2.67;2.47;;;2.40;99.90;;;;;;4895887;29;20249;-84
2023/12/10 10:23:14;;;;;;;7.72;5.35;;;2.60;99.90;;;;;;4911588;29;20489;-83
2023/12/10 10:25:44;;;;;;;5.22;4.82;;;2.00;99.90;;;;;;4905283;29;20395;-86
2023/12/10 10:28:15;;;;;;;4.18;2.55;;;2.10;99.90;;;;;;4916988;29;20186;-82
2023/12/10 10:30:43;;;;;;;4.80;4.38;;;2.20;99.90;;;;;;4920518;29;20215;-81
2023/12/10 10:33:11;;;;;;;2.42;2.33;;;2.10;99.90;;;;;;4917597;29;20206;-83
2023/12/10 10:35:39;;;;;;;1.85;1.75;;;2.40;99.90;;;;;;4913998;29;20202;-83
2023/12/10 10:38:11;;;;;;;2.97;2.10;;;2.50;99.90;;;;;;4906448;29;20530;-84
2023/12/10 10:40:38;;;;;;;4.25;3.95;;;2.50;99.90;;;;;;4913347;29;20297;-83
2023/12/10 10:43:05;;;;;;;3.17;2.88;;;2.50;99.90;;;;;;4905365;29;20465;-83
2023/12/10 10:45:36;;;;;;;3.30;3.10;;;2.70;99.90;;;;;;4911098;29;20213;-84
2023/12/10 10:48:17;;;;;;;2.80;2.70;;;2.30;99.90;;;;;;4912347;29;20204;-86
2023/12/10 10:50:45;;;;;;;5.20;4.78;;;2.70;99.90;;;;;;4900491;29;20256;-86
2023/12/10 10:53:12;;;;;;;1.33;1.33;;;2.70;99.90;;;;;;4917966;29;20253;-83
2023/12/10 10:55:40;;;;;;;2.60;2.50;;;2.80;99.90;;;;;;4920940;29;20209;-81
2023/12/10 10:58:28;;;;;;;4.38;3.88;;;2.80;99.90;;;;;;4906459;29;20363;-82
2023/12/10 11:00:58;;;;;;;1.17;1.17;;;2.90;99.90;;;;;;4902749;29;20196;-90
2023/12/10 11:03:27;;;;;;;2.97;2.88;;;3.00;99.90;;;;;;4913600;29;20460;-81
2023/12/10 11:06:01;;;;;;;4.13;3.72;;;3.50;99.90;;;;;;4897448;29;20236;-81
2023/12/10 11:08:33;;;;;;;3.50;3.08;;;3.00;99.90;;;;;;4913519;29;20570;-81
2023/12/10 11:11:00;;;;;;;3.92;3.60;;;3.10;99.90;;;;;;4903084;29;20209;-83
2023/12/10 11:13:47;;;;;;;1.30;1.30;;;3.30;99.90;;;;;;4900757;29;20257;-84
2023/12/10 11:16:16;;;;;;;7.35;4.15;;;3.20;99.90;;;;;;4915462;29;20224;-86
2023/12/10 11:19:04;;;;;;;2.40;2.30;;;3.10;99.90;;;;;;4914713;29;20210;-80
2023/12/10 11:21:32;;;;;;;1.52;1.48;;;3.40;99.90;;;;;;4903196;29;20221;-81
2023/12/10 11:23:59;;;;;;;0.60;0.60;;;3.00;99.90;;;;;;4903469;29;20307;-81
2023/12/10 11:26:26;;;;;;;2.58;2.47;;;3.10;99.90;;;;;;4911538;29;20280;-80
2023/12/10 11:28:53;;;;;;;1.13;1.13;;;3.20;99.90;;;;;;4912449;29;20218;-81
2023/12/10 11:31:20;;;;;;;0.85;0.85;;;3.10;99.90;;;;;;4911059;29;20285;-79
2023/12/10 11:33:49;;;;;;;1.27;1.27;;;3.10;99.90;;;;;;4917953;29;20263;-81
2023/12/10 11:36:21;;;;;;;1.30;0.98;;;3.10;99.90;;;;;;4905417;29;20221;-87
2023/12/10 11:39:16;;;;;;;2.47;2.38;;;3.10;99.90;;;;;;4909341;29;20336;-85
2023/12/10 11:41:52;;;;;;;2.45;2.25;;;3.20;99.90;;;;;;4887185;29;20233;-83
2023/12/10 11:44:32;;;;;;;1.95;1.58;;;3.60;99.90;;;;;;4918229;29;20281;-84
2023/12/10 11:47:04;;;;;;;2.15;2.05;;;3.40;99.90;;;;;;4917437;29;20200;-81
2023/12/10 11:49:40;;;;;;;6.38;4.22;;;4.10;99.90;;;;;;4909140;29;20237;-80
2023/12/10 11:52:07;;;;;;;5.05;2.40;;;4.00;99.90;;;;;;4910274;29;20268;-79
2023/12/10 11:54:36;;;;;;;4.18;3.97;;;3.70;99.90;;;;;;4901127;29;20264;-81
2023/12/10 11:57:05;;;;;;;1.08;1.08;;;3.50;99.90;;;;;;4907134;29;20209;-83
2023/12/10 11:59:33;;;;;;;3.33;3.22;;;3.80;99.90;;;;;;4915489;29;20277;-81
2023/12/10 12:02:01;;;;;;;2.55;2.38;;;3.90;99.90;;;;;;4910890;29;20252;-79
2023/12/10 12:04:35;;;;;;;2.78;2.58;;;3.90;99.90;;;;;;4903769;29;20272;-81
2023/12/10 12:07:03;;;;;;;1.75;1.65;;;4.10;99.90;;;;;;4913300;29;20393;-82
2023/12/10 12:09:30;;;;;;;1.52;1.48;;;3.80;99.90;;;;;;4907131;29;20529;-81
2023/12/10 12:11:57;;;;;;;2.72;2.53;;;4.00;99.90;;;;;;4906296;29;20407;-80
2023/12/10 12:14:25;;;;;;;1.95;1.85;;;4.00;99.90;;;;;;4907985;29;20256;-82
2023/12/10 12:16:52;;;;;;;1.48;1.38;;;4.70;99.90;;;;;;4898625;29;20464;-79
2023/12/10 12:19:27;;;;;;;1.10;1.05;;;4.00;99.90;;;;;;4911040;29;20423;-82
2023/12/10 12:21:57;;;;;;;1.83;1.75;;;4.00;99.90;;;;;;4903527;29;20450;-83
2023/12/10 12:24:25;;;;;;;0.50;0.50;;;4.10;99.90;;;;;;4903537;29;20418;-82
2023/12/10 12:26:52;;;;;;;1.65;1.63;;;4.20;99.90;;;;;;4918568;29;20215;-84
2023/12/10 12:29:20;;;;;;;3.00;2.80;;;4.10;99.90;;;;;;4920628;29;20296;-85
2023/12/10 12:31:47;;;;;;;4.30;4.10;;;4.10;99.90;;;;;;4936178;29;20204;-85
2023/12/10 12:34:35;;;;;;;1.90;1.80;;;4.20;99.90;;;;;;4910902;29;20217;-82
2023/12/10 12:37:02;;;;;;;4.43;4.18;;;4.10;99.90;;;;;;4905104;29;20214;-84
2023/12/10 12:39:29;;;;;;;1.88;1.77;;;4.10;99.90;;;;;;4912364;29;20212;-83
2023/12/10 12:41:56;;;;;;;2.08;2.00;;;4.10;99.90;;;;;;4911539;29;20516;-81
2023/12/10 12:44:23;;;;;;;0.65;0.65;;;4.20;99.90;;;;;;4911148;29;20258;-82
2023/12/10 12:46:51;;;;;;;3.40;3.20;;;4.40;99.90;;;;;;4907692;29;20244;-83
2023/12/10 12:49:19;;;;;;;1.42;1.42;;;4.90;99.90;;;;;;4918838;29;20236;-83
2023/12/10 12:51:49;;;;;;;0.77;0.77;;;3.90;99.90;;;;;;4906015;29;20245;-84
2023/12/10 12:54:16;;;;;;;0.98;0.98;;;3.90;99.90;;;;;;4913444;29;20240;-81
2023/12/10 12:56:46;;;;;;;1.25;1.25;;;4.10;99.90;;;;;;4915632;29;20241;-81
2023/12/10 12:59:13;;;;;;;3.17;2.90;;;3.80;99.90;;;;;;4912127;29;20241;-82
2023/12/10 13:01:42;;;;;;;4.63;4.43;;;4.10;99.90;;;;;;4902661;29;20469;-82
2023/12/10 13:04:09;;;;;;;2.30;2.20;;;4.00;99.90;;;;;;4909086;29;20263;-82
2023/12/10 13:06:37;;;;;;;5.68;5.20;;;4.00;99.90;;;;;;4907075;29;20541;-81